Kafue Polder, Zambia

9:02 PM CAT on September 19, 2014 (GMT +0200)
Kenneth Kaunda Intl | Change Station
CLOSE
Current Station
Airport
Location: Kenneth Kaunda Intl,
Elevation: 1768 ft
Nearby Weather Stations

Elev 1768 ft 15.33 °S, 28.46 °E | Updated 1 hour ago

Clear
Clear
75 °F
Feels Like 75 °F
N
0
Wind Variable Wind from North

Today
High -- | Low -- °F
--% Chance of Precip.
Yesterday
High -- | Low -- °F
Precip. -- in
6:00 AM 6:04 PM
Waning Crescent, 17% visible
Pressure 30.06 in
Visibility -9999.0 miles
Clouds
Dew Point 45 °F
Humidity 34%
Rainfall 0.00 in
Snow Depth Not available.
UV Not available.
Pollen Not available.
Air Quality Not available.
Flu Activity Not available.
METAR FLKK 191800Z 00000KT CAVOK 24/07 Q1018

More Conditions Fewer Conditions

Pressure 30.06 in
Visibility -9999.0 miles
Clouds
Dew Point 45 °F
Humidity 34%
Rainfall 0.00 in
Snow Depth Not available.
UV Not available.
Pollen Not available.
Air Quality Not available.
Flu Activity Not available.
METAR FLKK 191800Z 00000KT CAVOK 24/07 Q1018

More Conditions Fewer Conditions

10-Day Weather Forecast

Almanac

Astronomy

Sep. 19, 2014 Rise Set
Actual Time 6:00 AM CAT 6:04 PM CAT
Civil Twilight 5:39 AM CAT 6:25 PM CAT
Nautical Twilight 5:14 AM CAT 6:50 PM CAT
Astronomical Twilight 4:49 AM CAT 7:15 PM CAT
Moon 2:34 AM CAT 2:20 PM CAT
Length of Visible Light 12h 46m
Length of Day
12h 03m
Tomorrow will be 0m 52s longer.
Waning Crescent, 17% of the Moon is Illuminated
Today
Waning Crescent
Sep 24
New
Oct 1
First Quarter
Oct 8
Full
Oct 15
Last Quarter

Today's Extremes

Country Highs Country Lows

Community

WunderPhotos

Upload Photos

1,754,684 photos uploaded!

WunderBlogs® & News

Nearby

Snow Depth

Not available.

Earthquake Activity

City Distance Mag. Time & Date
No recent earthquake activity has been reported nearby.
Minimum magnitude displayed is 2.5.

Coastal Water Temperatures

Place Temperature
No Stations Reporting

Nearby Weather Stations